Time;durP1;ratioP1;P1;durP2;ratioP2;P2;SDS_P1;SDS_P2;PMS_P1;PMS_P2;Temp;Humidity;BMP_temperature;BMP_pressure;BME280_temperature;BME280_humidity;BME280_pressure;Samples;Min_cycle;Max_cycle;Signal;HPM_P1;HPM_P2
2022/06/28 00:04:58;;;;;;;5.63;4.57;;;23.50;99.90;;;;;;10474629;28;20231;-77
2022/06/28 00:10:21;;;;;;;5.43;4.07;;;23.50;1.00;;;;;;10481573;28;20199;-77
2022/06/28 00:21:24;;;;;;;5.50;4.28;;;23.40;1.00;;;;;;10481506;28;20314;-76
2022/06/28 00:26:46;;;;;;;8.38;4.93;;;23.40;99.90;;;;;;10481902;28;20199;-76
2022/06/28 00:32:08;;;;;;;7.03;4.30;;;23.30;99.90;;;;;;10453855;28;20196;-76
2022/06/28 00:37:30;;;;;;;14.60;4.70;;;23.20;99.90;;;;;;10440172;28;20507;-75
2022/06/28 00:42:51;;;;;;;6.53;4.05;;;23.20;1.00;;;;;;10480085;28;20223;-77
2022/06/28 00:48:15;;;;;;;5.30;4.30;;;23.20;1.00;;;;;;10494221;28;20188;-78
2022/06/28 00:53:37;;;;;;;6.32;4.45;;;23.10;1.00;;;;;;10479680;28;20204;-76
2022/06/28 00:58:59;;;;;;;14.82;4.75;;;23.20;1.00;;;;;;10507135;28;20513;-77
2022/06/28 01:04:20;;;;;;;4.40;4.00;;;23.10;1.00;;;;;;10471728;28;20228;-75
2022/06/28 01:09:42;;;;;;;7.80;4.78;;;23.10;1.00;;;;;;10484610;28;20200;-76
2022/06/28 01:15:04;;;;;;;5.75;4.43;;;23.10;1.00;;;;;;10493470;28;20195;-77
2022/06/28 01:20:58;;;;;;;5.38;4.15;;;23.10;1.00;;;;;;10477651;28;20471;-77
2022/06/28 01:26:25;;;;;;;6.20;4.65;;;23.10;1.00;;;;;;10492941;28;20199;-79
2022/06/28 01:31:46;;;;;;;5.43;4.85;;;23.10;1.00;;;;;;10505849;28;20191;-79
2022/06/28 01:37:09;;;;;;;4.97;4.32;;;23.10;1.00;;;;;;10492431;28;20199;-76
2022/06/28 01:42:32;;;;;;;4.95;3.95;;;23.10;1.00;;;;;;10490092;28;20221;-76
2022/06/28 01:47:53;;;;;;;6.30;4.28;;;23.10;1.00;;;;;;10436731;28;20184;-78
2022/06/28 01:53:21;;;;;;;8.00;5.00;;;23.10;20.20;;;;;;10477688;28;20241;-78
2022/06/28 01:58:50;;;;;;;6.65;4.32;;;22.90;99.90;;;;;;10482441;28;20188;-78
2022/06/28 02:04:21;;;;;;;4.82;4.40;;;22.90;99.90;;;;;;10491545;28;20525;-77
2022/06/28 02:09:48;;;;;;;6.60;4.22;;;22.90;99.90;;;;;;10458484;28;20275;-77
2022/06/28 02:15:10;;;;;;;12.20;5.55;;;22.80;99.90;;;;;;10477337;28;20188;-76
2022/06/28 02:20:33;;;;;;;5.70;5.10;;;22.70;99.90;;;;;;10462274;28;20227;-77
2022/06/28 02:25:55;;;;;;;7.72;4.63;;;22.70;99.90;;;;;;10477166;28;20219;-77
2022/06/28 02:31:16;;;;;;;4.65;4.25;;;22.70;99.90;;;;;;10476652;28;20212;-78
2022/06/28 02:42:17;;;;;;;6.25;4.80;;;22.60;99.90;;;;;;10478536;28;20219;-77
2022/06/28 02:47:39;;;;;;;8.13;5.03;;;22.60;1.00;;;;;;10485534;28;20192;-77
2022/06/28 02:53:01;;;;;;;6.18;5.22;;;22.60;1.00;;;;;;10486300;28;20198;-81
2022/06/28 02:58:22;;;;;;;7.55;4.82;;;22.60;1.00;;;;;;10485077;28;20207;-79
2022/06/28 03:03:44;;;;;;;6.18;5.03;;;22.60;1.00;;;;;;10484454;28;20271;-78
2022/06/28 03:09:06;;;;;;;8.43;5.28;;;22.70;99.90;;;;;;10466956;28;20518;-77
2022/06/28 03:14:28;;;;;;;7.72;4.80;;;22.70;99.90;;;;;;10471834;28;20364;-77
2022/06/28 03:19:50;;;;;;;6.28;4.65;;;22.70;99.90;;;;;;10469959;28;20224;-76
2022/06/28 03:25:12;;;;;;;4.93;4.50;;;22.90;99.90;;;;;;10484242;28;20430;-76
2022/06/28 03:30:33;;;;;;;13.45;5.45;;;23.00;99.90;;;;;;10482732;28;20194;-76
2022/06/28 03:35:55;;;;;;;9.18;5.82;;;23.00;99.90;;;;;;10468776;28;20219;-76
2022/06/28 03:41:22;;;;;;;6.47;5.15;;;22.90;99.90;;;;;;10454296;28;20218;-76
2022/06/28 03:46:49;;;;;;;7.63;4.97;;;22.80;1.00;;;;;;10441645;28;20199;-76
2022/06/28 03:52:30;;;;;;;12.63;5.00;;;22.80;1.00;;;;;;10465236;28;20199;-76
2022/06/28 03:58:06;;;;;;;8.20;5.50;;;22.70;1.00;;;;;;10511072;28;20217;-77
2022/06/28 04:03:28;;;;;;;5.53;5.03;;;22.70;1.00;;;;;;10474599;28;20234;-76
2022/06/28 04:08:50;;;;;;;5.93;5.32;;;22.80;1.00;;;;;;10471269;28;20197;-78
2022/06/28 04:14:13;;;;;;;6.95;5.18;;;22.90;1.00;;;;;;10442143;28;20196;-76
2022/06/28 04:19:35;;;;;;;6.00;5.40;;;22.90;1.00;;;;;;10482131;28;20228;-77
2022/06/28 04:24:57;;;;;;;7.28;4.68;;;23.00;1.00;;;;;;10482969;28;20226;-76
2022/06/28 04:30:28;;;;;;;9.27;5.28;;;23.20;99.90;;;;;;10495019;28;20542;-76
2022/06/28 04:35:54;;;;;;;7.78;5.57;;;23.20;99.90;;;;;;10494394;28;20222;-77
2022/06/28 04:41:17;;;;;;;6.97;5.57;;;23.40;99.90;;;;;;10442988;28;20227;-79
2022/06/28 04:47:01;;;;;;;7.63;6.15;;;23.40;99.90;;;;;;10439258;28;20267;-76
2022/06/28 04:52:24;;;;;;;14.00;6.68;;;23.60;99.90;;;;;;10452910;28;20200;-76
2022/06/28 04:57:48;;;;;;;8.00;6.00;;;23.60;99.90;;;;;;10489328;28;20556;-75
2022/06/28 05:03:10;;;;;;;7.90;5.88;;;23.80;99.90;;;;;;10503452;28;20224;-76
2022/06/28 05:08:56;;;;;;;10.25;6.68;;;23.90;99.90;;;;;;10424064;28;20283;-78
2022/06/28 05:14:28;;;;;;;6.05;5.38;;;24.00;99.90;;;;;;10421187;28;20216;-77
2022/06/28 05:19:51;;;;;;;8.43;5.95;;;24.20;99.90;;;;;;10420842;28;20270;-79
2022/06/28 05:25:13;;;;;;;6.25;5.57;;;24.30;95.80;;;;;;10434482;28;20244;-76
2022/06/28 05:30:34;;;;;;;6.65;6.03;;;24.40;99.90;;;;;;10420632;28;20446;-76
2022/06/28 05:35:55;;;;;;;6.38;5.78;;;24.60;1.00;;;;;;10417239;28;20266;-78
2022/06/28 05:41:17;;;;;;;5.40;4.90;;;24.70;1.00;;;;;;10434479;28;20219;-76
2022/06/28 05:46:39;;;;;;;10.27;6.38;;;24.70;1.00;;;;;;10439527;28;20196;-77
2022/06/28 05:52:01;;;;;;;5.85;5.25;;;24.70;1.00;;;;;;10450513;28;20199;-80
2022/06/28 05:57:22;;;;;;;6.53;5.20;;;24.70;1.00;;;;;;10459028;28;20400;-78
2022/06/28 06:02:44;;;;;;;5.85;5.18;;;24.80;1.00;;;;;;10428056;28;20418;-80
2022/06/28 06:08:06;;;;;;;5.40;4.90;;;24.90;1.00;;;;;;10435654;28;20201;-80
2022/06/28 06:13:27;;;;;;;7.47;5.20;;;25.00;99.90;;;;;;10410224;28;20523;-79
2022/06/28 06:18:49;;;;;;;7.88;5.60;;;25.10;99.90;;;;;;10413478;28;20272;-80
2022/06/28 06:24:11;;;;;;;9.30;6.18;;;25.20;99.90;;;;;;10472560;28;20239;-80
2022/06/28 06:29:59;;;;;;;6.60;5.38;;;25.30;99.90;;;;;;10476520;28;20513;-80
2022/06/28 06:35:39;;;;;;;6.22;5.63;;;;;;;;;;10476765;28;20275;-81
2022/06/28 06:41:01;;;;;;;8.10;5.63;;;;;;;;;;10435163;28;20192;-81
2022/06/28 06:46:22;;;;;;;9.20;5.65;;;26.00;1.00;;;;;;10449453;28;20199;-78
2022/06/28 06:51:45;;;;;;;7.68;5.28;;;26.40;1.00;;;;;;10464083;28;20196;-78
2022/06/28 06:57:08;;;;;;;13.88;5.90;;;26.60;1.00;;;;;;10476236;28;20504;-80
2022/06/28 07:02:30;;;;;;;7.32;5.55;;;26.80;99.90;;;;;;10492190;28;20246;-79
2022/06/28 07:07:52;;;;;;;7.35;5.20;;;27.30;99.90;;;;;;10489594;28;20275;-81
2022/06/28 07:13:20;;;;;;;9.93;5.28;;;27.50;99.90;;;;;;10413805;28;20232;-82
2022/06/28 07:18:42;;;;;;;11.18;5.85;;;27.80;1.00;;;;;;10369365;28;20194;-84
2022/06/28 07:24:05;;;;;;;18.95;5.82;;;28.30;99.90;;;;;;10351104;28;20347;-76
2022/06/28 07:29:29;;;;;;;6.85;5.00;;;28.80;99.90;;;;;;10390585;28;20268;-82
2022/06/28 07:34:58;;;;;;;9.52;6.05;;;28.60;99.90;;;;;;10393438;28;20209;-84
2022/06/28 07:40:28;;;;;;;12.75;5.43;;;28.30;99.90;;;;;;10393431;28;20204;-78
2022/06/28 07:46:12;;;;;;;7.70;4.88;;;28.20;1.00;;;;;;10396486;28;20228;-82
2022/06/28 07:57:14;;;;;;;13.30;4.93;;;29.00;1.00;;;;;;10400698;28;20201;-78
2022/06/28 08:02:37;;;;;;;6.78;5.13;;;29.10;99.90;;;;;;10407401;28;20221;-85
2022/06/28 08:08:00;;;;;;;8.13;4.90;;;29.50;99.90;;;;;;10376837;28;20205;-78
2022/06/28 08:13:25;;;;;;;7.10;5.28;;;29.90;65.30;;;;;;10388639;28;20213;-81
2022/06/28 08:18:47;;;;;;;12.02;5.68;;;29.90;19.00;;;;;;10379455;28;20284;-84
2022/06/28 08:24:12;;;;;;;12.13;6.10;;;29.70;1.00;;;;;;10381850;28;20252;-87
2022/06/28 08:29:34;;;;;;;12.63;6.05;;;29.60;99.90;;;;;;10395437;28;20203;-91
2022/06/28 08:34:56;;;;;;;7.63;5.53;;;29.90;99.90;;;;;;10379777;28;20268;-82
2022/06/28 08:40:17;;;;;;;7.22;5.55;;;30.20;1.00;;;;;;10393017;28;20207;-85
2022/06/28 08:45:42;;;;;;;11.35;6.05;;;30.70;1.00;;;;;;10393193;28;20228;-81
2022/06/28 08:51:07;;;;;;;6.15;5.47;;;30.00;1.00;;;;;;10393633;28;20239;-86
2022/06/28 08:56:32;;;;;;;10.00;6.45;;;29.10;1.00;;;;;;10393415;28;20277;-80
2022/06/28 09:01:58;;;;;;;8.35;6.10;;;28.40;22.90;;;;;;10380248;28;20312;-87
2022/06/28 09:07:22;;;;;;;10.27;5.93;;;27.80;1.00;;;;;;10379554;28;20209;-80
2022/06/28 09:12:54;;;;;;;5.78;5.07;;;27.30;99.90;;;;;;10381589;28;20251;-80
2022/06/28 09:18:17;;;;;;;8.27;5.18;;;26.60;99.90;;;;;;10381284;28;20571;-82
2022/06/28 09:23:41;;;;;;;10.15;4.80;;;26.20;1.00;;;;;;10389976;28;20268;-80
2022/06/28 09:29:12;;;;;;;5.05;4.10;;;25.70;1.00;;;;;;10403515;28;20177;-81
2022/06/28 09:34:33;;;;;;;4.00;3.30;;;25.40;1.00;;;;;;10374468;28;20205;-82
2022/06/28 09:39:54;;;;;;;6.70;3.92;;;25.50;1.00;;;;;;10390411;28;20211;-79
2022/06/28 09:45:16;;;;;;;11.98;5.07;;;25.70;1.00;;;;;;10391224;28;20208;-80
2022/06/28 09:50:38;;;;;;;17.20;4.40;;;25.80;1.00;;;;;;10391046;28;20273;-80
2022/06/28 09:56:05;;;;;;;4.10;3.70;;;26.10;1.00;;;;;;10400726;28;20430;-78
2022/06/28 10:01:26;;;;;;;6.72;5.05;;;26.30;1.00;;;;;;10370443;28;20212;-79
2022/06/28 10:06:49;;;;;;;9.40;5.35;;;26.30;1.00;;;;;;10376804;28;20284;-79
2022/06/28 10:18:00;;;;;;;12.27;5.38;;;25.40;1.00;;;;;;10375650;28;20228;-79
2022/06/28 10:23:24;;;;;;;8.00;5.70;;;25.10;1.00;;;;;;10390770;28;20443;-87
2022/06/28 10:29:07;;;;;;;6.85;5.82;;;24.90;1.00;;;;;;10389231;28;20197;-78
2022/06/28 10:34:52;;;;;;;9.23;6.00;;;24.70;33.40;;;;;;10392602;28;20221;-87
2022/06/28 10:40:31;;;;;;;8.75;7.13;;;24.60;30.60;;;;;;10375670;28;20197;-78
2022/06/28 10:46:06;;;;;;;8.98;5.57;;;24.50;69.80;;;;;;10389405;28;20243;-79
2022/06/28 10:51:27;;;;;;;6.20;5.13;;;24.50;10.80;;;;;;10388994;28;20251;-84
2022/06/28 10:56:49;;;;;;;5.07;4.30;;;24.50;7.20;;;;;;10377540;28;20196;-81
2022/06/28 11:02:10;;;;;;;5.32;3.63;;;24.30;1.00;;;;;;10356468;28;20255;-78
2022/06/28 11:07:34;;;;;;;4.22;3.22;;;23.80;1.00;;;;;;10379152;28;20213;-80
2022/06/28 11:13:19;;;;;;;5.90;3.63;;;23.60;1.00;;;;;;10388645;28;20209;-79
2022/06/28 11:18:40;;;;;;;7.45;5.90;;;23.40;1.00;;;;;;10401031;28;20189;-79
2022/06/28 11:24:02;;;;;;;2.97;2.75;;;23.40;1.00;;;;;;10382048;28;20240;-83
2022/06/28 11:29:25;;;;;;;3.13;2.83;;;23.40;1.00;;;;;;10395507;28;20193;-84
2022/06/28 11:35:08;;;;;;;3.30;2.78;;;23.30;1.00;;;;;;10382080;28;20197;-79
2022/06/28 11:40:40;;;;;;;4.22;3.35;;;23.20;1.00;;;;;;10395840;28;20197;-81
2022/06/28 11:46:03;;;;;;;3.85;3.22;;;22.90;1.00;;;;;;10394561;28;20241;-78
2022/06/28 11:51:29;;;;;;;2.75;2.50;;;22.60;1.00;;;;;;10394590;28;20204;-85
2022/06/28 11:56:51;;;;;;;2.97;2.50;;;22.60;1.00;;;;;;10398689;28;20197;-79
2022/06/28 12:02:39;;;;;;;3.78;2.92;;;22.70;1.00;;;;;;10394461;28;20416;-81
2022/06/28 12:08:01;;;;;;;4.28;3.47;;;;;;;;;;10376348;28;20201;-80
2022/06/28 12:13:22;;;;;;;3.40;3.10;;;22.50;10.30;;;;;;10380371;28;20229;-82
2022/06/28 12:18:54;;;;;;;4.03;3.63;;;22.30;10.10;;;;;;10408564;28;20193;-79
2022/06/28 12:24:15;;;;;;;5.68;3.33;;;22.20;12.10;;;;;;10393600;28;20229;-80
2022/06/28 12:29:37;;;;;;;9.57;3.95;;;22.10;27.50;;;;;;10392970;28;20205;-80
2022/06/28 12:35:06;;;;;;;11.18;5.38;;;22.10;21.00;;;;;;10395517;28;20227;-83
2022/06/28 12:40:28;;;;;;;7.55;4.28;;;22.10;11.00;;;;;;10396261;28;20251;-85
2022/06/28 12:45:50;;;;;;;3.45;2.38;;;22.10;1.00;;;;;;10394126;28;20224;-81
2022/06/28 12:51:11;;;;;;;2.17;1.98;;;22.20;1.00;;;;;;10393035;28;20204;-79
2022/06/28 12:56:33;;;;;;;2.30;2.10;;;22.30;1.00;;;;;;10408763;28;20272;-83
2022/06/28 13:01:54;;;;;;;2.85;2.22;;;22.30;1.00;;;;;;10412604;28;20199;-81
2022/06/28 13:07:18;;;;;;;5.80;4.03;;;22.30;1.00;;;;;;10379168;28;20379;-83
2022/06/28 13:12:41;;;;;;;6.80;3.25;;;22.40;1.00;;;;;;10392783;28;20288;-83
2022/06/28 13:18:02;;;;;;;3.05;2.42;;;22.50;1.00;;;;;;10389652;28;20191;-80
2022/06/28 13:23:24;;;;;;;4.97;2.05;;;22.50;1.00;;;;;;10391792;28;20247;-85
2022/06/28 13:28:46;;;;;;;4.95;2.72;;;22.60;1.00;;;;;;10392224;28;20197;-83
2022/06/28 13:34:09;;;;;;;3.90;1.90;;;22.50;1.00;;;;;;10394140;28;20209;-80
2022/06/28 13:39:30;;;;;;;2.78;2.03;;;22.50;1.00;;;;;;10353243;28;20205;-83
2022/06/28 13:44:52;;;;;;;3.17;1.95;;;22.50;1.00;;;;;;10367418;28;20229;-80
2022/06/28 13:50:15;;;;;;;3.92;1.92;;;22.50;1.00;;;;;;10378968;28;20523;-78
2022/06/28 13:55:40;;;;;;;2.17;1.80;;;22.40;1.00;;;;;;10394440;28;20500;-77
2022/06/28 14:01:02;;;;;;;2.83;2.10;;;22.70;1.00;;;;;;10375390;28;20224;-78
2022/06/28 14:06:24;;;;;;;1.95;1.80;;;22.80;1.00;;;;;;10368296;28;20244;-81
2022/06/28 14:11:45;;;;;;;3.33;1.70;;;22.90;1.00;;;;;;10375821;28;20427;-83
2022/06/28 14:17:08;;;;;;;3.97;2.05;;;22.80;1.00;;;;;;10391203;28;20197;-81
2022/06/28 14:22:31;;;;;;;4.20;1.80;;;22.50;1.00;;;;;;10388664;28;20273;-79
2022/06/28 14:27:58;;;;;;;1.92;1.63;;;22.40;1.00;;;;;;10390273;28;20394;-82
2022/06/28 14:33:21;;;;;;;1.45;1.35;;;22.40;1.00;;;;;;10389507;28;20272;-83
2022/06/28 14:38:42;;;;;;;2.45;1.80;;;22.50;1.00;;;;;;10393610;28;20193;-82
2022/06/28 14:44:04;;;;;;;4.65;1.90;;;22.50;1.00;;;;;;10398393;28;20221;-80
2022/06/28 14:49:26;;;;;;;1.48;1.38;;;22.40;1.00;;;;;;10396253;28;20181;-79
2022/06/28 14:54:47;;;;;;;2.97;1.42;;;22.10;1.00;;;;;;10376128;28;20209;-79
2022/06/28 15:00:10;;;;;;;3.78;1.75;;;21.60;1.00;;;;;;10431445;28;20337;-79
2022/06/28 15:05:31;;;;;;;4.55;2.05;;;21.50;1.00;;;;;;10395064;28;20252;-82
2022/06/28 15:10:53;;;;;;;2.73;1.63;;;21.50;1.00;;;;;;10361714;28;20418;-77
2022/06/28 15:16:15;;;;;;;4.20;1.80;;;21.50;1.00;;;;;;10399148;28;20192;-78
2022/06/28 15:32:58;;;;;;;4.45;2.00;;;21.50;1.00;;;;;;10400227;28;20197;-76
2022/06/28 15:38:19;;;;;;;2.33;1.98;;;21.50;1.00;;;;;;10399002;28;20193;-77
2022/06/28 15:43:44;;;;;;;2.17;1.88;;;21.40;1.00;;;;;;10402330;28;20279;-81
2022/06/28 15:49:05;;;;;;;3.72;1.70;;;21.40;1.00;;;;;;10400269;28;20220;-84
2022/06/28 15:54:26;;;;;;;3.72;2.50;;;21.30;1.00;;;;;;10401514;28;20448;-77
2022/06/28 15:59:48;;;;;;;8.73;2.33;;;21.40;1.00;;;;;;10438621;28;20190;-77
2022/06/28 16:05:10;;;;;;;2.38;2.00;;;21.60;1.00;;;;;;10397825;28;20259;-78
2022/06/28 16:10:32;;;;;;;2.85;1.98;;;21.60;1.00;;;;;;10405099;28;20197;-77
2022/06/28 16:15:53;;;;;;;3.35;1.80;;;21.50;1.00;;;;;;10400190;28;20236;-77
2022/06/28 16:21:17;;;;;;;3.80;2.30;;;21.50;1.00;;;;;;10399880;28;20240;-78
2022/06/28 16:26:39;;;;;;;2.38;1.90;;;21.60;1.00;;;;;;10399071;28;20292;-77
2022/06/28 16:32:02;;;;;;;5.18;2.55;;;21.50;1.00;;;;;;10384523;28;20488;-79
2022/06/28 16:37:23;;;;;;;3.13;1.95;;;21.20;1.00;;;;;;10399283;28;20216;-82
2022/06/28 16:42:56;;;;;;;2.88;1.85;;;21.20;1.00;;;;;;10398818;28;20215;-76
2022/06/28 16:48:18;;;;;;;2.38;1.83;;;21.10;1.00;;;;;;10398889;28;20272;-77
2022/06/28 16:53:39;;;;;;;2.47;1.95;;;21.00;1.00;;;;;;10398727;28;20204;-79
2022/06/28 16:59:01;;;;;;;2.83;1.70;;;20.90;1.00;;;;;;10433572;28;20193;-78
2022/06/28 17:04:22;;;;;;;4.88;2.00;;;20.90;1.00;;;;;;10357213;28;20279;-80
2022/06/28 17:09:44;;;;;;;4.53;2.10;;;20.90;1.00;;;;;;10391568;28;20507;-77
2022/06/28 17:15:06;;;;;;;3.15;1.65;;;;;;;;;;10397868;28;20203;-78
2022/06/28 17:20:29;;;;;;;3.70;2.10;;;20.70;1.00;;;;;;10397565;28;20255;-78
2022/06/28 17:25:50;;;;;;;4.40;2.30;;;20.70;1.00;;;;;;10397333;28;20247;-78
2022/06/28 17:31:11;;;;;;;7.60;3.20;;;20.60;1.00;;;;;;10397000;28;20196;-78
2022/06/28 17:36:33;;;;;;;11.70;3.38;;;20.50;1.00;;;;;;10396303;28;20216;-78
2022/06/28 17:41:55;;;;;;;5.18;2.63;;;;;;;;;;10396821;28;20208;-78
2022/06/28 17:47:16;;;;;;;7.18;3.05;;;20.40;1.00;;;;;;10395544;28;20305;-79
2022/06/28 17:52:38;;;;;;;5.90;3.08;;;20.30;1.00;;;;;;10396795;28;20200;-81
2022/06/28 17:58:00;;;;;;;7.82;3.03;;;20.40;1.00;;;;;;10422038;28;20246;-78
2022/06/28 18:03:21;;;;;;;4.03;2.53;;;20.30;1.00;;;;;;10404266;28;20243;-80
2022/06/28 18:08:43;;;;;;;3.90;2.30;;;20.30;1.00;;;;;;10368708;28;20205;-78
2022/06/28 18:14:05;;;;;;;7.43;3.03;;;20.30;1.00;;;;;;10392335;28;20216;-77
2022/06/28 18:19:26;;;;;;;4.20;2.15;;;20.20;1.00;;;;;;10380716;28;20207;-77
2022/06/28 18:24:50;;;;;;;7.68;2.40;;;20.30;1.00;;;;;;10395540;28;20328;-80
2022/06/28 18:30:13;;;;;;;2.80;2.03;;;20.30;1.00;;;;;;10394099;28;20452;-77
2022/06/28 18:35:35;;;;;;;4.32;2.40;;;20.30;1.00;;;;;;10395872;28;20189;-78
2022/06/28 18:40:56;;;;;;;4.00;2.38;;;20.30;1.00;;;;;;10395522;28;20373;-78
2022/06/28 18:46:20;;;;;;;5.28;2.40;;;20.30;1.00;;;;;;10394381;28;20236;-78
2022/06/28 18:51:41;;;;;;;3.60;1.77;;;20.30;1.00;;;;;;10395040;28;20189;-77
2022/06/28 18:57:04;;;;;;;3.55;2.45;;;20.40;1.00;;;;;;10413773;28;20188;-78
2022/06/28 19:02:25;;;;;;;4.57;2.92;;;20.30;1.00;;;;;;10410782;28;20212;-77
2022/06/28 19:07:47;;;;;;;7.05;3.83;;;20.20;1.00;;;;;;10375094;28;20229;-77
2022/06/28 19:13:08;;;;;;;7.38;4.18;;;20.20;1.00;;;;;;10390845;28;20193;-78
2022/06/28 19:18:29;;;;;;;9.70;4.30;;;20.30;1.00;;;;;;10393914;28;20256;-77
2022/06/28 19:23:50;;;;;;;7.82;3.85;;;20.30;1.00;;;;;;10396109;28;20279;-79
2022/06/28 19:29:12;;;;;;;5.20;2.95;;;20.20;1.00;;;;;;10405340;28;20189;-82
2022/06/28 19:34:33;;;;;;;5.20;2.80;;;20.00;1.00;;;;;;10388852;28;20207;-79
2022/06/28 19:39:55;;;;;;;5.10;2.10;;;20.00;1.00;;;;;;10403549;28;20301;-79
2022/06/28 19:45:17;;;;;;;4.25;2.20;;;19.90;1.00;;;;;;10387689;28;20465;-79
2022/06/28 19:50:38;;;;;;;2.60;1.85;;;19.80;1.00;;;;;;10399817;28;20231;-80
2022/06/28 19:55:59;;;;;;;4.15;1.80;;;19.80;1.00;;;;;;10410809;28;20192;-80
2022/06/28 20:01:21;;;;;;;5.00;2.05;;;;;;;;;;10410454;28;20239;-79
2022/06/28 20:06:43;;;;;;;3.63;2.40;;;19.80;1.00;;;;;;10417505;28;20252;-79
2022/06/28 20:12:07;;;;;;;4.20;2.90;;;19.80;1.00;;;;;;10370081;28;20292;-81
2022/06/28 20:17:28;;;;;;;5.55;2.72;;;19.70;1.00;;;;;;10400022;28;20201;-80
2022/06/28 20:22:50;;;;;;;5.68;2.78;;;19.60;1.00;;;;;;10384169;28;20240;-81
2022/06/28 20:28:12;;;;;;;4.25;2.60;;;19.50;1.00;;;;;;10398681;28;20288;-78
2022/06/28 20:33:37;;;;;;;4.22;2.03;;;19.40;1.00;;;;;;10399129;28;20373;-77
2022/06/28 20:38:59;;;;;;;3.47;2.00;;;19.20;1.00;;;;;;10399092;28;20197;-78
2022/06/28 20:44:20;;;;;;;4.47;2.25;;;19.20;2.40;;;;;;10398898;28;20244;-78
2022/06/28 20:49:42;;;;;;;3.33;1.70;;;19.10;11.80;;;;;;10399071;28;20201;-78
2022/06/28 20:55:05;;;;;;;2.00;1.60;;;19.10;20.30;;;;;;10400283;28;20212;-77
2022/06/28 21:00:27;;;;;;;11.65;2.40;;;19.00;24.20;;;;;;10438119;28;20472;-77
2022/06/28 21:05:48;;;;;;;3.25;2.03;;;19.10;24.10;;;;;;10393977;28;20228;-79
2022/06/28 21:11:10;;;;;;;2.20;1.77;;;19.00;32.10;;;;;;10371129;28;20231;-77
2022/06/28 21:16:31;;;;;;;2.42;1.88;;;18.90;36.90;;;;;;10396641;28;20206;-77
2022/06/28 21:21:52;;;;;;;2.35;1.50;;;18.80;41.00;;;;;;10397147;28;20220;-77
2022/06/28 21:27:14;;;;;;;1.98;1.70;;;18.90;34.30;;;;;;10397602;28;20236;-79
2022/06/28 21:32:35;;;;;;;3.15;2.05;;;18.80;43.10;;;;;;10396338;28;20186;-77
2022/06/28 21:37:57;;;;;;;6.05;2.30;;;18.80;50.10;;;;;;10396744;28;20235;-78
2022/06/28 21:43:19;;;;;;;2.67;1.90;;;18.70;52.60;;;;;;10396612;28;20235;-77
2022/06/28 21:48:41;;;;;;;2.60;2.13;;;18.60;54.40;;;;;;10396136;28;20551;-76
2022/06/28 21:54:02;;;;;;;3.10;2.08;;;18.60;65.20;;;;;;10395184;28;20193;-81
2022/06/28 21:59:23;;;;;;;3.50;2.10;;;18.40;79.60;;;;;;10432931;28;20203;-77
2022/06/28 22:04:45;;;;;;;5.72;2.30;;;18.40;77.20;;;;;;10395820;28;20295;-77
2022/06/28 22:16:55;;;;;;;5.05;2.33;;;18.30;92.50;;;;;;10355096;28;20233;-77
2022/06/28 22:22:18;;;;;;;6.30;2.70;;;18.20;99.90;;;;;;10377564;28;20303;-78
2022/06/28 22:28:08;;;;;;;4.65;2.10;;;18.20;99.90;;;;;;10395121;28;20260;-78
2022/06/28 22:33:30;;;;;;;8.57;2.58;;;18.20;99.90;;;;;;10395003;28;20223;-78
2022/06/28 22:38:52;;;;;;;6.25;2.72;;;18.20;99.90;;;;;;10394343;28;20408;-77
2022/06/28 22:44:13;;;;;;;4.80;2.40;;;18.10;99.90;;;;;;10393870;28;20274;-77
2022/06/28 22:49:34;;;;;;;4.68;2.45;;;18.10;99.90;;;;;;10393754;28;20203;-77
2022/06/28 22:54:56;;;;;;;5.20;2.45;;;;;;;;;;10381680;28;20221;-77
2022/06/28 23:00:18;;;;;;;7.78;3.42;;;17.90;99.90;;;;;;10420193;28;20203;-76
2022/06/28 23:05:39;;;;;;;7.20;2.90;;;17.70;99.90;;;;;;10401427;28;20375;-77
2022/06/28 23:11:03;;;;;;;3.55;2.25;;;17.70;99.90;;;;;;10386586;28;20199;-76
2022/06/28 23:16:24;;;;;;;6.03;3.00;;;17.60;99.90;;;;;;10400697;28;20221;-77
2022/06/28 23:21:46;;;;;;;4.60;2.67;;;17.60;99.90;;;;;;10402163;28;20228;-78
2022/06/28 23:27:07;;;;;;;4.75;2.45;;;17.60;99.90;;;;;;10386925;28;20513;-77
2022/06/28 23:32:28;;;;;;;5.28;2.92;;;17.50;99.90;;;;;;10401653;28;20420;-79
2022/06/28 23:37:49;;;;;;;9.02;3.00;;;17.50;99.90;;;;;;10401645;28;20250;-77
2022/06/28 23:43:11;;;;;;;4.93;2.85;;;17.40;99.90;;;;;;10401661;28;20196;-78
2022/06/28 23:48:32;;;;;;;4.35;2.40;;;17.40;99.90;;;;;;10401005;28;20212;-79
2022/06/28 23:59:34;;;;;;;3.85;2.53;;;17.40;99.90;;;;;;10406924;28;20200;-79
